sensor_id;sensor_type;location;lat;lon;timestamp;pressure;altitude;pressure_sealevel;temperature;humidity
58311;BME280;45001;52.218;5.154;2022-09-09T00:01:01;100736.56;;;22.98;54.90
58311;BME280;45001;52.218;5.154;2022-09-09T00:03:35;100747.44;;;22.98;55.01
58311;BME280;45001;52.218;5.154;2022-09-09T00:06:05;100737.41;;;22.98;54.89
58311;BME280;45001;52.218;5.154;2022-09-09T00:08:36;100737.41;;;22.98;54.91
58311;BME280;45001;52.218;5.154;2022-09-09T00:11:04;100723.81;;;22.98;54.90
58311;BME280;45001;52.218;5.154;2022-09-09T00:13:34;100730.31;;;22.97;54.86
58311;BME280;45001;52.218;5.154;2022-09-09T00:18:28;100724.88;;;22.97;54.85
58311;BME280;45001;52.218;5.154;2022-09-09T00:23:28;100729.47;;;22.97;54.90
58311;BME280;45001;52.218;5.154;2022-09-09T00:28:28;100730.31;;;22.97;54.83
58311;BME280;45001;52.218;5.154;2022-09-09T00:30:59;100728.66;;;22.96;54.98
58311;BME280;45001;52.218;5.154;2022-09-09T00:33:26;100721.56;;;22.95;54.96
58311;BME280;45001;52.218;5.154;2022-09-09T00:35:52;100719.66;;;22.96;54.92
58311;BME280;45001;52.218;5.154;2022-09-09T00:38:23;100725.31;;;22.94;54.86
58311;BME280;45001;52.218;5.154;2022-09-09T00:41:00;100725.31;;;22.94;54.82
58311;BME280;45001;52.218;5.154;2022-09-09T00:43:28;100730.75;;;22.94;54.93
58311;BME280;45001;52.218;5.154;2022-09-09T00:46:16;100729.13;;;22.93;54.96
58311;BME280;45001;52.218;5.154;2022-09-09T00:48:58;100723.69;;;22.93;54.87
58311;BME280;45001;52.218;5.154;2022-09-09T00:51:30;100729.94;;;22.94;54.94
58311;BME280;45001;52.218;5.154;2022-09-09T00:54:10;100722.88;;;22.93;54.83
58311;BME280;45001;52.218;5.154;2022-09-09T00:56:53;100722.00;;;22.92;54.84
58311;BME280;45001;52.218;5.154;2022-09-09T00:59:36;100722.88;;;22.93;54.80
58311;BME280;45001;52.218;5.154;2022-09-09T01:02:12;100728.53;;;22.91;54.90
58311;BME280;45001;52.218;5.154;2022-09-09T01:04:39;100728.53;;;22.91;54.92
58311;BME280;45001;52.218;5.154;2022-09-09T01:07:10;100719.56;;;22.91;54.99
58311;BME280;45001;52.218;5.154;2022-09-09T01:09:44;100725.81;;;22.91;54.79
58311;BME280;45001;52.218;5.154;2022-09-09T01:12:17;100720.38;;;22.91;54.88
58311;BME280;45001;52.218;5.154;2022-09-09T01:14:49;100719.56;;;22.91;54.87
58311;BME280;45001;52.218;5.154;2022-09-09T01:27:46;100714.34;;;22.89;54.84
58311;BME280;45001;52.218;5.154;2022-09-09T01:30:14;100717.06;;;22.89;55.03
58311;BME280;45001;52.218;5.154;2022-09-09T01:35:20;100699.09;;;22.88;54.89
58311;BME280;45001;52.218;5.154;2022-09-09T01:37:50;100703.72;;;22.88;54.92
58311;BME280;45001;52.218;5.154;2022-09-09T01:40:16;100711.03;;;22.87;54.72
58311;BME280;45001;52.218;5.154;2022-09-09T01:42:42;100709.16;;;22.88;54.84
58311;BME280;45001;52.218;5.154;2022-09-09T01:45:07;100702.88;;;22.87;54.79
58311;BME280;45001;52.218;5.154;2022-09-09T01:47:32;100698.50;;;22.86;54.85
58311;BME280;45001;52.218;5.154;2022-09-09T01:49:58;100693.06;;;22.86;54.98
58311;BME280;45001;52.218;5.154;2022-09-09T01:52:24;100701.22;;;22.86;54.92
58311;BME280;45001;52.218;5.154;2022-09-09T01:54:49;100694.97;;;22.86;54.98
58311;BME280;45001;52.218;5.154;2022-09-09T02:02:28;100693.28;;;22.84;54.85
58311;BME280;45001;52.218;5.154;2022-09-09T02:05:18;100697.91;;;22.84;54.78
58311;BME280;45001;52.218;5.154;2022-09-09T02:07:42;100692.47;;;22.84;54.72
58311;BME280;45001;52.218;5.154;2022-09-09T02:10:21;100692.47;;;22.84;54.73
58311;BME280;45001;52.218;5.154;2022-09-09T02:12:51;100683.72;;;22.82;54.94
58311;BME280;45001;52.218;5.154;2022-09-09T02:15:30;100697.31;;;22.82;54.89
58311;BME280;45001;52.218;5.154;2022-09-09T02:17:57;100689.16;;;22.82;54.82
58311;BME280;45001;52.218;5.154;2022-09-09T02:20:24;100694.59;;;22.82;54.77
58311;BME280;45001;52.218;5.154;2022-09-09T02:22:52;100686.69;;;22.80;54.75
58311;BME280;45001;52.218;5.154;2022-09-09T02:25:19;100686.44;;;22.82;54.80
58311;BME280;45001;52.218;5.154;2022-09-09T02:27:45;100689.41;;;22.80;54.71
58311;BME280;45001;52.218;5.154;2022-09-09T02:30:11;100684.78;;;22.81;54.83
58311;BME280;45001;52.218;5.154;2022-09-09T02:32:37;100683.16;;;22.80;54.76
58311;BME280;45001;52.218;5.154;2022-09-09T02:35:08;100685.88;;;22.80;54.81
58311;BME280;45001;52.218;5.154;2022-09-09T02:37:36;100682.31;;;22.79;54.85
58311;BME280;45001;52.218;5.154;2022-09-09T02:40:03;100686.91;;;22.79;54.70
58311;BME280;45001;52.218;5.154;2022-09-09T02:42:28;100685.03;;;22.79;54.62
58311;BME280;45001;52.218;5.154;2022-09-09T02:44:54;100682.56;;;22.78;54.77
58311;BME280;45001;52.218;5.154;2022-09-09T02:52:30;100676.53;;;22.76;54.54
58311;BME280;45001;52.218;5.154;2022-09-09T02:54:58;100673.81;;;22.76;54.61
58311;BME280;45001;52.218;5.154;2022-09-09T02:57:28;100678.41;;;22.75;54.70
58311;BME280;45001;52.218;5.154;2022-09-09T02:59:57;100675.69;;;22.75;54.57
58311;BME280;45001;52.218;5.154;2022-09-09T03:02:22;100677.59;;;22.75;54.57
58311;BME280;45001;52.218;5.154;2022-09-09T03:04:47;100675.91;;;22.74;54.66
58311;BME280;45001;52.218;5.154;2022-09-09T03:07:16;100674.03;;;22.74;54.63
58311;BME280;45001;52.218;5.154;2022-09-09T03:09:42;100669.66;;;22.73;54.63
58311;BME280;45001;52.218;5.154;2022-09-09T03:12:07;100670.47;;;22.74;54.66
58311;BME280;45001;52.218;5.154;2022-09-09T03:14:32;100668.84;;;22.73;54.67
58311;BME280;45001;52.218;5.154;2022-09-09T03:16:57;100668.84;;;22.73;54.63
58311;BME280;45001;52.218;5.154;2022-09-09T03:19:25;100663.41;;;22.73;54.76
58311;BME280;45001;52.218;5.154;2022-09-09T03:21:51;100657.97;;;22.73;54.65
58311;BME280;45001;52.218;5.154;2022-09-09T03:24:16;100660.69;;;22.73;54.73
58311;BME280;45001;52.218;5.154;2022-09-09T03:26:42;100661.72;;;22.72;54.61
58311;BME280;45001;52.218;5.154;2022-09-09T03:29:09;100654.44;;;22.72;54.58
58311;BME280;45001;52.218;5.154;2022-09-09T03:31:35;100661.72;;;22.72;54.53
58311;BME280;45001;52.218;5.154;2022-09-09T03:34:01;100667.16;;;22.72;54.58
58311;BME280;45001;52.218;5.154;2022-09-09T03:36:27;100669.88;;;22.72;54.65
58311;BME280;45001;52.218;5.154;2022-09-09T03:38:53;100663.88;;;22.70;54.62
58311;BME280;45001;52.218;5.154;2022-09-09T03:41:22;100659.28;;;22.70;54.55
58311;BME280;45001;52.218;5.154;2022-09-09T03:43:49;100669.31;;;22.70;54.64
58311;BME280;45001;52.218;5.154;2022-09-09T03:46:15;100662.22;;;22.69;54.57
58311;BME280;45001;52.218;5.154;2022-09-09T03:48:40;100660.31;;;22.69;54.62
58311;BME280;45001;52.218;5.154;2022-09-09T03:51:05;100667.66;;;22.69;54.63
58311;BME280;45001;52.218;5.154;2022-09-09T03:53:30;100667.66;;;22.69;54.62
58311;BME280;45001;52.218;5.154;2022-09-09T03:55:56;100657.03;;;22.67;54.59
58311;BME280;45001;52.218;5.154;2022-09-09T03:58:24;100667.91;;;22.67;54.57
58311;BME280;45001;52.218;5.154;2022-09-09T04:00:58;100665.19;;;22.67;54.58
58311;BME280;45001;52.218;5.154;2022-09-09T04:03:24;100672.50;;;22.67;54.63
58311;BME280;45001;52.218;5.154;2022-09-09T04:05:53;100654.31;;;22.67;54.63
58311;BME280;45001;52.218;5.154;2022-09-09T04:08:21;100668.13;;;22.65;54.56
58311;BME280;45001;52.218;5.154;2022-09-09T04:10:50;100668.13;;;22.65;54.50
58311;BME280;45001;52.218;5.154;2022-09-09T04:13:15;100661.03;;;22.64;54.65
58311;BME280;45001;52.218;5.154;2022-09-09T04:15:43;100660.19;;;22.64;54.53
58311;BME280;45001;52.218;5.154;2022-09-09T04:18:08;100656.44;;;22.65;54.37
58311;BME280;45001;52.218;5.154;2022-09-09T04:20:34;100659.16;;;22.65;54.41
58311;BME280;45001;52.218;5.154;2022-09-09T04:22:59;100652.03;;;22.64;53.97
58311;BME280;45001;52.218;5.154;2022-09-09T04:25:26;100646.84;;;22.62;53.90
58311;BME280;45001;52.218;5.154;2022-09-09T04:27:54;100652.28;;;22.62;54.17
58311;BME280;45001;52.218;5.154;2022-09-09T04:30:20;100645.78;;;22.63;53.71
58311;BME280;45001;52.218;5.154;2022-09-09T04:32:46;100641.41;;;22.62;53.81
58311;BME280;45001;52.218;5.154;2022-09-09T04:35:11;100640.59;;;22.62;53.99
58311;BME280;45001;52.218;5.154;2022-09-09T04:37:37;100637.06;;;22.61;54.28
58311;BME280;45001;52.218;5.154;2022-09-09T04:40:03;100635.38;;;22.60;53.84
58311;BME280;45001;52.218;5.154;2022-09-09T04:42:28;100633.50;;;22.61;53.85
58311;BME280;45001;52.218;5.154;2022-09-09T04:44:53;100638.09;;;22.60;53.74
58311;BME280;45001;52.218;5.154;2022-09-09T04:47:19;100632.66;;;22.60;53.67
58311;BME280;45001;52.218;5.154;2022-09-09T04:49:44;100638.34;;;22.59;53.60
58311;BME280;45001;52.218;5.154;2022-09-09T04:52:10;100623.09;;;22.58;53.59
58311;BME280;45001;52.218;5.154;2022-09-09T04:54:35;100628.53;;;22.58;53.58
58311;BME280;45001;52.218;5.154;2022-09-09T04:57:00;100631.25;;;22.58;53.49
58311;BME280;45001;52.218;5.154;2022-09-09T04:59:25;100626.88;;;22.57;53.43
58311;BME280;45001;52.218;5.154;2022-09-09T05:01:50;100631.25;;;22.58;53.31
58311;BME280;45001;52.218;5.154;2022-09-09T05:04:16;100617.91;;;22.56;53.34
58311;BME280;45001;52.218;5.154;2022-09-09T05:06:41;100631.50;;;22.56;53.37
58311;BME280;45001;52.218;5.154;2022-09-09T05:09:07;100625.00;;;22.57;53.40
58311;BME280;45001;52.218;5.154;2022-09-09T05:11:32;100626.06;;;22.56;53.46
58311;BME280;45001;52.218;5.154;2022-09-09T05:14:00;100625.25;;;22.56;53.55
58311;BME280;45001;52.218;5.154;2022-09-09T05:16:26;100621.09;;;22.53;54.31
58311;BME280;45001;52.218;5.154;2022-09-09T05:18:51;100613.06;;;22.47;54.22
58311;BME280;45001;52.218;5.154;2022-09-09T05:21:17;100615.19;;;22.44;54.22
58311;BME280;45001;52.218;5.154;2022-09-09T05:23:42;100621.91;;;22.42;54.09
58311;BME280;45001;52.218;5.154;2022-09-09T05:26:12;100624.38;;;22.43;53.94
58311;BME280;45001;52.218;5.154;2022-09-09T05:28:38;100622.41;;;22.39;54.08
58311;BME280;45001;52.218;5.154;2022-09-09T05:31:04;100632.66;;;22.37;53.89
58311;BME280;45001;52.218;5.154;2022-09-09T05:33:32;100628.50;;;22.34;53.86
58311;BME280;45001;52.218;5.154;2022-09-09T05:36:04;100621.66;;;22.32;53.80
58311;BME280;45001;52.218;5.154;2022-09-09T05:38:30;100631.47;;;22.33;53.73
58311;BME280;45001;52.218;5.154;2022-09-09T05:40:57;100627.69;;;22.34;53.83
58311;BME280;45001;52.218;5.154;2022-09-09T05:43:23;100616.81;;;22.34;53.68
58311;BME280;45001;52.218;5.154;2022-09-09T05:45:57;100615.41;;;22.31;53.72
58311;BME280;45001;52.218;5.154;2022-09-09T05:48:23;100604.78;;;22.30;53.68
58311;BME280;45001;52.218;5.154;2022-09-09T05:50:52;100620.25;;;22.29;53.81
58311;BME280;45001;52.218;5.154;2022-09-09T05:53:17;100627.78;;;22.27;53.82
58311;BME280;45001;52.218;5.154;2022-09-09T05:55:43;100623.63;;;22.24;53.80
58311;BME280;45001;52.218;5.154;2022-09-09T05:58:10;100634.50;;;22.24;53.78
58311;BME280;45001;52.218;5.154;2022-09-09T06:00:36;100626.34;;;22.24;53.76
58311;BME280;45001;52.218;5.154;2022-09-09T06:03:01;100624.69;;;22.23;53.78
58311;BME280;45001;52.218;5.154;2022-09-09T06:05:27;100632.00;;;22.23;53.78
58311;BME280;45001;52.218;5.154;2022-09-09T06:07:52;100633.91;;;22.22;53.87
58311;BME280;45001;52.218;5.154;2022-09-09T06:10:18;100635.81;;;22.22;53.93
58311;BME280;45001;52.218;5.154;2022-09-09T06:12:44;100624.94;;;22.22;53.94
58311;BME280;45001;52.218;5.154;2022-09-09T06:15:09;100628.69;;;22.21;54.08
58311;BME280;45001;52.218;5.154;2022-09-09T06:17:34;100623.84;;;22.23;53.88
58311;BME280;45001;52.218;5.154;2022-09-09T06:19:59;100620.91;;;22.24;53.71
58311;BME280;45001;52.218;5.154;2022-09-09T06:22:25;100624.44;;;22.25;53.75
58311;BME280;45001;52.218;5.154;2022-09-09T06:24:50;100620.50;;;22.28;53.62
58311;BME280;45001;52.218;5.154;2022-09-09T06:27:16;100621.09;;;22.30;53.73
58311;BME280;45001;52.218;5.154;2022-09-09T06:29:41;100619.78;;;22.32;53.67
58311;BME280;45001;52.218;5.154;2022-09-09T06:32:06;100622.03;;;22.35;53.60
58311;BME280;45001;52.218;5.154;2022-09-09T06:34:34;100623.94;;;22.35;53.64
58311;BME280;45001;52.218;5.154;2022-09-09T06:37:00;100622.53;;;22.44;53.95
58311;BME280;45001;52.218;5.154;2022-09-09T06:39:25;100617.75;;;23.22;52.10
58311;BME280;45001;52.218;5.154;2022-09-09T06:41:51;100624.50;;;23.60;51.42
58311;BME280;45001;52.218;5.154;2022-09-09T06:44:18;100620.22;;;23.93;50.48
58311;BME280;45001;52.218;5.154;2022-09-09T06:46:43;100625.00;;;23.86;50.96
58311;BME280;45001;52.218;5.154;2022-09-09T06:49:09;100619.22;;;23.70;51.42
58311;BME280;45001;52.218;5.154;2022-09-09T06:51:35;100621.69;;;23.84;51.11
58311;BME280;45001;52.218;5.154;2022-09-09T06:54:01;100614.25;;;23.79;51.36
58311;BME280;45001;52.218;5.154;2022-09-09T06:56:28;100614.13;;;23.74;51.40
58311;BME280;45001;52.218;5.154;2022-09-09T06:58:55;100619.47;;;23.80;51.43
58311;BME280;45001;52.218;5.154;2022-09-09T07:01:21;100623.25;;;23.79;51.04
58311;BME280;45001;52.218;5.154;2022-09-09T07:03:49;100632.09;;;23.87;51.22
58311;BME280;45001;52.218;5.154;2022-09-09T07:06:16;100626.75;;;23.92;51.30
58311;BME280;45001;52.218;5.154;2022-09-09T07:08:48;100632.56;;;23.84;51.49
58311;BME280;45001;52.218;5.154;2022-09-09T07:11:13;100636.28;;;24.23;50.45
58311;BME280;45001;52.218;5.154;2022-09-09T07:13:38;100630.91;;;24.28;50.46
58311;BME280;45001;52.218;5.154;2022-09-09T07:16:04;100634.84;;;24.21;50.58
58311;BME280;45001;52.218;5.154;2022-09-09T07:18:30;100629.72;;;24.07;51.09
58311;BME280;45001;52.218;5.154;2022-09-09T07:20:55;100620.16;;;24.05;51.07
58311;BME280;45001;52.218;5.154;2022-09-09T07:23:22;100618.16;;;24.00;51.29
58311;BME280;45001;52.218;5.154;2022-09-09T07:25:47;100628.09;;;24.06;51.47
58311;BME280;45001;52.218;5.154;2022-09-09T07:28:13;100634.75;;;24.15;51.03
58311;BME280;45001;52.218;5.154;2022-09-09T07:30:38;100634.69;;;24.10;51.15
58311;BME280;45001;52.218;5.154;2022-09-09T07:33:04;100621.16;;;24.15;51.29
58311;BME280;45001;52.218;5.154;2022-09-09T07:35:30;100626.53;;;24.10;50.93
58311;BME280;45001;52.218;5.154;2022-09-09T07:37:55;100620.28;;;24.27;50.81
58311;BME280;45001;52.218;5.154;2022-09-09T07:40:21;100628.94;;;24.24;51.19
58311;BME280;45001;52.218;5.154;2022-09-09T07:42:47;100627.44;;;24.33;50.88
58311;BME280;45001;52.218;5.154;2022-09-09T07:45:12;100623.00;;;24.44;50.71
58311;BME280;45001;52.218;5.154;2022-09-09T07:47:37;100623.75;;;24.56;50.38
58311;BME280;45001;52.218;5.154;2022-09-09T07:50:03;100630.63;;;24.59;50.26
58311;BME280;45001;52.218;5.154;2022-09-09T07:52:28;100625.44;;;24.45;50.31
58311;BME280;45001;52.218;5.154;2022-09-09T07:54:53;100625.63;;;24.38;50.54
58311;BME280;45001;52.218;5.154;2022-09-09T07:57:18;100626.13;;;24.52;50.50
58311;BME280;45001;52.218;5.154;2022-09-09T07:59:44;100624.72;;;24.67;50.15
58311;BME280;45001;52.218;5.154;2022-09-09T08:02:09;100623.06;;;24.66;50.10
58311;BME280;45001;52.218;5.154;2022-09-09T08:04:35;100625.97;;;24.59;50.17
58311;BME280;45001;52.218;5.154;2022-09-09T08:07:01;100622.34;;;24.53;50.42
58311;BME280;45001;52.218;5.154;2022-09-09T08:09:28;100630.28;;;24.55;50.32
58311;BME280;45001;52.218;5.154;2022-09-09T08:11:54;100618.03;;;24.57;50.08
58311;BME280;45001;52.218;5.154;2022-09-09T08:14:21;100631.75;;;24.63;49.92
58311;BME280;45001;52.218;5.154;2022-09-09T08:16:48;100623.06;;;24.66;49.89
58311;BME280;45001;52.218;5.154;2022-09-09T08:19:14;100630.41;;;24.48;50.15
58311;BME280;45001;52.218;5.154;2022-09-09T08:21:42;100635.53;;;24.62;50.03
58311;BME280;45001;52.218;5.154;2022-09-09T08:24:09;100632.75;;;24.56;50.17
58311;BME280;45001;52.218;5.154;2022-09-09T08:26:39;100635.22;;;24.58;50.12
58311;BME280;45001;52.218;5.154;2022-09-09T08:29:06;100627.88;;;24.59;50.09
58311;BME280;45001;52.218;5.154;2022-09-09T08:31:33;100630.53;;;24.53;50.19
58311;BME280;45001;52.218;5.154;2022-09-09T08:33:59;100630.09;;;24.62;49.97
58311;BME280;45001;52.218;5.154;2022-09-09T08:36:25;100635.88;;;24.65;49.98
58311;BME280;45001;52.218;5.154;2022-09-09T08:38:52;100637.78;;;24.65;49.71
58311;BME280;45001;52.218;5.154;2022-09-09T08:46:31;100639.00;;;24.74;49.28
58311;BME280;45001;52.218;5.154;2022-09-09T08:49:06;100639.00;;;24.74;49.38
58311;BME280;45001;52.218;5.154;2022-09-09T08:51:41;100648.69;;;24.65;49.76
58311;BME280;45001;52.218;5.154;2022-09-09T08:54:07;100651.91;;;24.62;49.96
58311;BME280;45001;52.218;5.154;2022-09-09T08:56:34;100648.13;;;24.63;49.67
58311;BME280;45001;52.218;5.154;2022-09-09T08:58:59;100651.41;;;24.65;49.60
58311;BME280;45001;52.218;5.154;2022-09-09T09:11:48;100649.72;;;24.81;48.79
58311;BME280;45001;52.218;5.154;2022-09-09T09:16:46;100655.78;;;24.66;49.32
58311;BME280;45001;52.218;5.154;2022-09-09T09:19:15;100647.44;;;24.72;49.46
58311;BME280;45001;52.218;5.154;2022-09-09T09:21:42;100661.63;;;24.91;48.98
58311;BME280;45001;52.218;5.154;2022-09-09T09:24:14;100656.69;;;24.88;48.78
58311;BME280;45001;52.218;5.154;2022-09-09T09:26:42;100661.53;;;24.35;49.51
58311;BME280;45001;52.218;5.154;2022-09-09T09:29:12;100656.63;;;24.66;49.07
58311;BME280;45001;52.218;5.154;2022-09-09T09:31:38;100661.97;;;24.78;48.88
58311;BME280;45001;52.218;5.154;2022-09-09T09:34:03;100658.56;;;24.88;48.52
58311;BME280;45001;52.218;5.154;2022-09-09T09:36:37;100661.41;;;24.76;48.54
58311;BME280;45001;52.218;5.154;2022-09-09T09:39:03;100654.34;;;24.80;48.71
58311;BME280;45001;52.218;5.154;2022-09-09T09:41:31;100665.69;;;24.72;48.80
58311;BME280;45001;52.218;5.154;2022-09-09T09:43:57;100659.72;;;24.75;48.91
58311;BME280;45001;52.218;5.154;2022-09-09T09:46:23;100655.44;;;24.79;48.51
58311;BME280;45001;52.218;5.154;2022-09-09T09:49:00;100662.47;;;24.75;48.78
58311;BME280;45001;52.218;5.154;2022-09-09T09:51:26;100658.09;;;24.74;48.76
58311;BME280;45001;52.218;5.154;2022-09-09T09:53:51;100655.28;;;24.69;48.77
58311;BME280;45001;52.218;5.154;2022-09-09T09:56:25;100662.53;;;24.80;48.80
58311;BME280;45001;52.218;5.154;2022-09-09T09:58:51;100660.97;;;24.84;48.64
58311;BME280;45001;52.218;5.154;2022-09-09T10:01:22;100655.00;;;24.87;48.27
58311;BME280;45001;52.218;5.154;2022-09-09T10:03:57;100652.03;;;24.89;48.17
58311;BME280;45001;52.218;5.154;2022-09-09T10:06:33;100666.41;;;24.84;48.63
58311;BME280;45001;52.218;5.154;2022-09-09T10:08:59;100665.28;;;24.80;48.85
58311;BME280;45001;52.218;5.154;2022-09-09T10:19:15;100659.91;;;24.68;49.00
58311;BME280;45001;52.218;5.154;2022-09-09T10:21:56;100653.13;;;24.71;49.02
58311;BME280;45001;52.218;5.154;2022-09-09T10:29:46;100664.69;;;24.78;48.83
58311;BME280;45001;52.218;5.154;2022-09-09T10:34:56;100660.97;;;24.84;48.78
58311;BME280;45001;52.218;5.154;2022-09-09T10:42:45;100655.13;;;24.75;49.44
58311;BME280;45001;52.218;5.154;2022-09-09T10:45:28;100664.78;;;24.83;49.05
58311;BME280;45001;52.218;5.154;2022-09-09T10:48:02;100649.44;;;24.77;49.37
58311;BME280;45001;52.218;5.154;2022-09-09T10:50:34;100644.00;;;24.99;49.25
58311;BME280;45001;52.218;5.154;2022-09-09T10:53:23;100646.38;;;24.95;49.48
58311;BME280;45001;52.218;5.154;2022-09-09T10:55:52;100648.81;;;24.92;50.08
58311;BME280;45001;52.218;5.154;2022-09-09T10:58:32;100643.03;;;24.88;50.02
58311;BME280;45001;52.218;5.154;2022-09-09T11:01:02;100644.09;;;24.87;49.96
58311;BME280;45001;52.218;5.154;2022-09-09T11:03:32;100647.19;;;24.74;50.50
58311;BME280;45001;52.218;5.154;2022-09-09T11:06:32;100646.91;;;24.92;50.21
58311;BME280;45001;52.218;5.154;2022-09-09T11:08:49;100646.47;;;25.01;50.33
58311;BME280;45001;52.218;5.154;2022-09-09T11:11:25;100651.72;;;24.85;50.41
58311;BME280;45001;52.218;5.154;2022-09-09T11:16:21;100646.66;;;24.43;51.43
58311;BME280;45001;52.218;5.154;2022-09-09T11:18:48;100643.25;;;24.02;52.44
58311;BME280;45001;52.218;5.154;2022-09-09T11:21:24;100645.94;;;24.31;52.07
58311;BME280;45001;52.218;5.154;2022-09-09T11:23:55;100645.06;;;23.96;52.83
58311;BME280;45001;52.218;5.154;2022-09-09T11:26:30;100637.06;;;23.90;52.91
58311;BME280;45001;52.218;5.154;2022-09-09T11:31:43;100642.31;;;23.79;53.06
58311;BME280;45001;52.218;5.154;2022-09-09T11:39:13;100631.88;;;24.05;52.49
58311;BME280;45001;52.218;5.154;2022-09-09T11:41:43;100628.84;;;24.35;51.97
58311;BME280;45001;52.218;5.154;2022-09-09T11:44:12;100616.38;;;24.39;52.01
58311;BME280;45001;52.218;5.154;2022-09-09T11:46:38;100624.47;;;24.51;52.01
58311;BME280;45001;52.218;5.154;2022-09-09T11:49:05;100622.34;;;24.53;51.94
58311;BME280;45001;52.218;5.154;2022-09-09T11:51:32;100630.28;;;24.55;52.01
58311;BME280;45001;52.218;5.154;2022-09-09T11:53:59;100627.81;;;24.53;51.91
58311;BME280;45001;52.218;5.154;2022-09-09T11:58:55;100635.38;;;24.51;51.74
58311;BME280;45001;52.218;5.154;2022-09-09T12:01:28;100637.63;;;24.54;51.42
58311;BME280;45001;52.218;5.154;2022-09-09T12:03:59;100637.03;;;24.52;51.76
58311;BME280;45001;52.218;5.154;2022-09-09T12:06:32;100643.41;;;24.58;51.76
58311;BME280;45001;52.218;5.154;2022-09-09T12:09:07;100644.81;;;24.61;51.68
58311;BME280;45001;52.218;5.154;2022-09-09T12:11:34;100643.81;;;24.67;51.74
58311;BME280;45001;52.218;5.154;2022-09-09T12:13:59;100641.31;;;24.65;52.15
58311;BME280;45001;52.218;5.154;2022-09-09T12:19:05;100634.47;;;24.80;51.50
58311;BME280;45001;52.218;5.154;2022-09-09T12:24:18;100641.88;;;24.84;51.61
58311;BME280;45001;52.218;5.154;2022-09-09T12:26:49;100635.19;;;24.75;51.83
58311;BME280;45001;52.218;5.154;2022-09-09T12:29:24;100633.31;;;24.75;51.60
58311;BME280;45001;52.218;5.154;2022-09-09T12:36:55;100628.59;;;24.71;51.98
58311;BME280;45001;52.218;5.154;2022-09-09T12:39:29;100632.22;;;24.76;52.09
58311;BME280;45001;52.218;5.154;2022-09-09T12:41:58;100627.53;;;24.72;52.16
58311;BME280;45001;52.218;5.154;2022-09-09T12:44:28;100627.09;;;24.80;52.03
58311;BME280;45001;52.218;5.154;2022-09-09T12:46:54;100622.47;;;24.81;52.31
58311;BME280;45001;52.218;5.154;2022-09-09T12:49:31;100629.91;;;24.85;51.90
58311;BME280;45001;52.218;5.154;2022-09-09T12:52:00;100625.03;;;24.87;52.21
58311;BME280;45001;52.218;5.154;2022-09-09T12:54:30;100628.31;;;24.89;52.11
58311;BME280;45001;52.218;5.154;2022-09-09T12:56:55;100621.72;;;24.85;52.12
58311;BME280;45001;52.218;5.154;2022-09-09T12:59:23;100622.28;;;24.87;52.40
58311;BME280;45001;52.218;5.154;2022-09-09T13:01:55;100617.00;;;24.81;52.23
58311;BME280;45001;52.218;5.154;2022-09-09T13:04:20;100621.16;;;24.83;51.94
58311;BME280;45001;52.218;5.154;2022-09-09T13:06:46;100619.72;;;24.81;51.99
58311;BME280;45001;52.218;5.154;2022-09-09T13:09:12;100626.59;;;24.83;52.13
58311;BME280;45001;52.218;5.154;2022-09-09T13:11:41;100617.31;;;24.84;51.92
58311;BME280;45001;52.218;5.154;2022-09-09T13:14:12;100626.72;;;24.93;51.68
58311;BME280;45001;52.218;5.154;2022-09-09T13:16:43;100623.09;;;24.88;51.70
58311;BME280;45001;52.218;5.154;2022-09-09T13:19:18;100619.06;;;24.90;52.01
58311;BME280;45001;52.218;5.154;2022-09-09T13:21:43;100624.53;;;24.90;51.90
58311;BME280;45001;52.218;5.154;2022-09-09T13:28:04;100616.47;;;23.13;56.95
58311;BME280;45001;52.218;5.154;2022-09-09T13:30:31;100606.66;;;23.00;57.07
58311;BME280;45001;52.218;5.154;2022-09-09T13:33:18;100612.13;;;22.64;57.91
58311;BME280;45001;52.218;5.154;2022-09-09T13:35:47;100611.75;;;22.84;57.77
58311;BME280;45001;52.218;5.154;2022-09-09T13:38:15;100610.16;;;23.24;57.38
58311;BME280;45001;52.218;5.154;2022-09-09T13:40:52;100608.56;;;23.80;55.90
58311;BME280;45001;52.218;5.154;2022-09-09T13:43:21;100622.34;;;23.91;54.93
58311;BME280;45001;52.218;5.154;2022-09-09T13:46:01;100612.63;;;23.95;53.88
58311;BME280;45001;52.218;5.154;2022-09-09T13:48:27;100616.34;;;24.06;53.83
58311;BME280;45001;52.218;5.154;2022-09-09T13:51:01;100615.06;;;24.08;53.48
58311;BME280;45001;52.218;5.154;2022-09-09T13:53:28;100618.41;;;24.15;52.98
58311;BME280;45001;52.218;5.154;2022-09-09T13:55:53;100612.97;;;24.15;52.97
58311;BME280;45001;52.218;5.154;2022-09-09T13:58:19;100613.16;;;24.09;52.98
58311;BME280;45001;52.218;5.154;2022-09-09T14:00:45;100610.50;;;23.97;53.40
58311;BME280;45001;52.218;5.154;2022-09-09T14:03:11;100619.16;;;23.94;53.07
58311;BME280;45001;52.218;5.154;2022-09-09T14:05:36;100617.44;;;23.88;53.36
58311;BME280;45001;52.218;5.154;2022-09-09T14:08:06;100622.19;;;23.80;53.39
58311;BME280;45001;52.218;5.154;2022-09-09T14:10:33;100621.94;;;23.70;53.85
58311;BME280;45001;52.218;5.154;2022-09-09T14:13:00;100616.91;;;23.62;53.85
58311;BME280;45001;52.218;5.154;2022-09-09T14:15:26;100630.53;;;23.62;53.85
58311;BME280;45001;52.218;5.154;2022-09-09T14:17:52;100619.28;;;23.58;54.02
58311;BME280;45001;52.218;5.154;2022-09-09T14:20:17;100621.44;;;23.56;54.05
58311;BME280;45001;52.218;5.154;2022-09-09T14:22:46;100624.41;;;23.55;53.96
58311;BME280;45001;52.218;5.154;2022-09-09T14:25:11;100613.06;;;23.46;54.21
58311;BME280;45001;52.218;5.154;2022-09-09T14:27:38;100626.19;;;23.49;54.27
58311;BME280;45001;52.218;5.154;2022-09-09T14:30:05;100627.00;;;23.50;54.23
58311;BME280;45001;52.218;5.154;2022-09-09T14:32:30;100622.34;;;23.62;53.81